Time;durP1;ratioP1;P1;durP2;ratioP2;P2;SDS_P1;SDS_P2;PMS_P1;PMS_P2;Temp;Humidity;BMP_temperature;BMP_pressure;BME280_temperature;BME280_humidity;BME280_pressure;Samples;Min_cycle;Max_cycle;Signal;HPM_P1;HPM_P2
2022/10/16 00:01:11;;;;;;;4.22;2.40;;;;;;;16.32;nan;99290.22;4943624;28;20469;-77
2022/10/16 00:03:38;;;;;;;5.82;2.53;;;;;;;16.34;nan;99298.03;4930244;28;20591;-77
2022/10/16 00:06:05;;;;;;;3.50;2.25;;;;;;;16.36;nan;99298.72;4945055;28;20209;-77
2022/10/16 00:08:31;;;;;;;3.17;2.55;;;;;;;16.38;nan;99300.25;4942806;28;20456;-77
2022/10/16 00:11:05;;;;;;;3.97;2.80;;;;;;;16.40;nan;99300.13;4939805;28;20208;-77
2022/10/16 00:13:33;;;;;;;2.35;2.15;;;;;;;16.42;nan;99307.91;4943592;28;20474;-77
2022/10/16 00:15:59;;;;;;;2.28;1.75;;;;;;;16.40;nan;99300.13;4943461;28;20252;-77
2022/10/16 00:18:26;;;;;;;2.75;2.50;;;;;;;16.43;nan;99305.13;4941948;28;20396;-77
2022/10/16 00:20:52;;;;;;;3.28;2.30;;;;;;;16.43;nan;99302.47;4942302;28;20202;-77
2022/10/16 00:23:17;;;;;;;7.67;3.20;;;;;;;16.42;nan;99303.47;4941605;28;20226;-77
2022/10/16 00:25:43;;;;;;;5.87;4.50;;;;;;;16.39;nan;99303.75;4942618;28;20514;-77
2022/10/16 00:28:08;;;;;;;4.73;3.60;;;;;;;16.40;nan;99304.59;4945524;28;20229;-77
2022/10/16 00:30:33;;;;;;;3.80;2.83;;;;;;;16.40;nan;99301.94;4942272;28;20219;-77
2022/10/16 00:32:59;;;;;;;7.40;3.00;;;;;;;16.40;nan;99305.41;4941521;28;20205;-77
2022/10/16 00:35:25;;;;;;;6.03;2.93;;;;;;;16.37;nan;99303.88;4941885;28;20221;-77
2022/10/16 00:37:50;;;;;;;4.17;3.00;;;;;;;16.34;nan;99306.00;4939558;28;20654;-77
2022/10/16 00:40:16;;;;;;;3.93;2.80;;;;;;;16.28;nan;99309.19;4941827;28;20230;-77
2022/10/16 00:42:41;;;;;;;6.03;2.60;;;;;;;16.24;nan;99305.16;4941138;28;20229;-77
2022/10/16 00:45:08;;;;;;;4.40;2.40;;;;;;;16.22;nan;99313.22;4940441;28;21065;-77
2022/10/16 00:47:38;;;;;;;3.03;2.08;;;;;;;16.23;nan;99312.28;4941057;28;20297;-77
2022/10/16 00:50:26;;;;;;;3.65;2.30;;;;;;;16.25;nan;99317.41;4941507;28;20300;-77
2022/10/16 00:52:53;;;;;;;7.00;3.35;;;;;;;16.27;nan;99318.13;4942553;28;20213;-77
2022/10/16 00:55:19;;;;;;;3.92;2.67;;;;;;;16.28;nan;99320.66;4942030;28;20923;-77
2022/10/16 00:57:45;;;;;;;2.75;2.40;;;;;;;16.30;nan;99320.50;4942958;28;20730;-77
2022/10/16 01:00:15;;;;;;;2.72;2.22;;;;;;;16.29;nan;99322.31;4944610;28;20242;-77
2022/10/16 01:02:41;;;;;;;5.60;2.47;;;;;;;16.31;nan;99328.31;4939101;28;20302;-77
2022/10/16 01:05:07;;;;;;;2.80;2.40;;;;;;;16.30;nan;99331.09;4944145;28;20220;-77
2022/10/16 01:07:59;;;;;;;3.93;2.70;;;;;;;16.30;nan;99339.88;4944892;28;20682;-77
2022/10/16 01:10:50;;;;;;;4.88;3.05;;;;;;;16.27;nan;99334.84;4941207;28;20243;-77
2022/10/16 01:13:32;;;;;;;4.88;3.30;;;;;;;16.28;nan;99333.91;4943165;28;20202;-77
2022/10/16 01:16:15;;;;;;;2.65;2.25;;;;;;;16.31;nan;99343.34;4941838;28;20232;-77
2022/10/16 01:19:09;;;;;;;4.60;3.53;;;;;;;16.32;nan;99348.53;4943062;28;20235;-77
2022/10/16 01:21:39;;;;;;;8.68;3.50;;;;;;;16.32;nan;99343.22;4941815;28;20199;-77
2022/10/16 01:24:26;;;;;;;4.15;2.70;;;;;;;16.32;nan;99337.09;4942106;28;20202;-77
2022/10/16 01:27:20;;;;;;;3.30;3.00;;;;;;;16.30;nan;99339.03;4942962;28;20272;-77
2022/10/16 01:30:13;;;;;;;3.55;3.25;;;;;;;16.28;nan;99338.34;4942720;28;20219;-78
2022/10/16 01:32:47;;;;;;;4.18;3.17;;;;;;;16.28;nan;99347.16;4943648;28;20204;-77
2022/10/16 01:35:25;;;;;;;5.78;3.83;;;;;;;16.28;nan;99338.34;4941591;28;20237;-77
2022/10/16 01:38:12;;;;;;;6.35;3.03;;;;;;;16.25;nan;99335.97;4942524;28;20209;-77
2022/10/16 01:40:41;;;;;;;3.53;3.20;;;;;;;16.22;nan;99345.03;4944953;28;20207;-77
2022/10/16 01:43:14;;;;;;;4.63;3.20;;;;;;;16.19;nan;99323.28;4940495;28;20300;-77
2022/10/16 01:45:41;;;;;;;5.28;3.20;;;;;;;16.14;nan;99321.88;4939102;28;20207;-77
2022/10/16 01:48:09;;;;;;;2.85;2.60;;;;;;;16.13;nan;99330.00;4940207;28;20226;-77
2022/10/16 01:50:39;;;;;;;4.90;3.05;;;;;;;16.12;nan;99325.66;4940046;28;20236;-77
2022/10/16 01:53:08;;;;;;;3.22;2.80;;;;;;;16.11;nan;99322.16;4941180;28;20211;-77
2022/10/16 01:55:38;;;;;;;6.60;2.30;;;;;;;16.08;nan;99318.97;4942280;28;20601;-77
2022/10/16 01:58:07;;;;;;;4.50;2.63;;;;;;;16.04;nan;99330.81;4942789;28;20205;-77
2022/10/16 02:00:33;;;;;;;6.07;2.53;;;;;;;16.01;nan;99313.38;4944205;28;20216;-77
2022/10/16 02:03:02;;;;;;;3.05;2.33;;;;;;;16.01;nan;99317.84;4945186;28;20248;-77
2022/10/16 02:05:37;;;;;;;3.15;2.25;;;;;;;15.97;nan;99322.59;4946318;28;20207;-77
2022/10/16 02:08:03;;;;;;;3.20;2.47;;;;;;;15.95;nan;99326.34;4943487;28;21294;-77
2022/10/16 02:10:30;;;;;;;5.47;2.70;;;;;;;15.95;nan;99321.88;4941653;28;20435;-77
2022/10/16 02:13:05;;;;;;;4.65;3.47;;;;;;;15.91;nan;99326.63;4944944;28;20286;-77
2022/10/16 02:15:31;;;;;;;4.60;2.70;;;;;;;15.88;nan;99326.91;4943244;28;20212;-77
2022/10/16 02:17:56;;;;;;;3.47;2.37;;;;;;;15.87;nan;99327.03;4941042;28;20216;-76
2022/10/16 02:20:27;;;;;;;4.57;2.50;;;;;;;15.84;nan;99330.81;4944117;28;20250;-77
2022/10/16 02:22:55;;;;;;;3.00;2.40;;;;;;;15.87;nan;99333.16;4944635;28;20196;-77
2022/10/16 02:25:29;;;;;;;3.42;2.70;;;;;;;15.87;nan;99337.63;4946560;28;20716;-77
2022/10/16 02:28:08;;;;;;;4.40;2.00;;;;;;;15.86;nan;99335.97;4940621;28;20397;-77
2022/10/16 02:30:42;;;;;;;4.07;2.40;;;;;;;15.81;nan;99325.78;4941746;28;20201;-77
2022/10/16 02:33:10;;;;;;;3.40;2.35;;;;;;;15.76;nan;99329.81;4942770;28;20200;-77
2022/10/16 02:35:38;;;;;;;3.28;2.30;;;;;;;15.74;nan;99326.47;4944596;28;20221;-77
2022/10/16 02:38:05;;;;;;;3.30;2.38;;;;;;;15.73;nan;99325.63;4944511;28;20679;-77
2022/10/16 02:40:31;;;;;;;3.30;3.00;;;;;;;15.70;nan;99326.75;4944480;28;20195;-77
2022/10/16 02:42:57;;;;;;;3.87;2.67;;;;;;;15.72;nan;99333.75;4944007;28;20211;-76
2022/10/16 02:45:24;;;;;;;3.90;2.27;;;;;;;15.72;nan;99334.56;4946492;28;20528;-76
2022/10/16 02:47:50;;;;;;;3.10;2.20;;;;;;;15.74;nan;99339.72;4947286;28;20205;-76
2022/10/16 02:50:15;;;;;;;2.60;2.33;;;;;;;15.73;nan;99328.28;4940608;28;103707;-76
2022/10/16 02:52:41;;;;;;;2.20;1.83;;;;;;;15.73;nan;99340.69;4948951;28;20654;-76
2022/10/16 02:55:07;;;;;;;3.63;1.97;;;;;;;15.75;nan;99346.69;4945515;28;20223;-76
2022/10/16 02:57:32;;;;;;;3.60;2.50;;;;;;;15.74;nan;99345.84;4947002;28;20253;-76
2022/10/16 02:59:58;;;;;;;11.50;2.70;;;;;;;15.73;nan;99344.19;4948023;28;20230;-76
2022/10/16 03:02:23;;;;;;;3.10;2.63;;;;;;;15.74;nan;99340.53;4947152;28;20206;-76
2022/10/16 03:04:49;;;;;;;4.60;2.40;;;;;;;15.74;nan;99340.53;4948948;28;20671;-76
2022/10/16 03:07:14;;;;;;;4.57;2.47;;;;;;;15.72;nan;99334.56;4937261;28;20201;-76
2022/10/16 03:09:40;;;;;;;3.40;2.27;;;;;;;15.69;nan;99342.78;4946314;28;20398;-76
2022/10/16 03:12:05;;;;;;;3.60;2.83;;;;;;;15.67;nan;99348.19;4944033;28;20194;-76
2022/10/16 03:14:30;;;;;;;3.27;2.97;;;;;;;15.65;nan;99328.94;4944339;28;20335;-76
2022/10/16 03:16:56;;;;;;;4.57;2.13;;;;;;;15.63;nan;99330.03;4946573;28;20224;-76
2022/10/16 03:19:21;;;;;;;4.23;2.27;;;;;;;15.63;nan;99332.69;4945704;28;21303;-76
2022/10/16 03:21:47;;;;;;;5.30;2.67;;;;;;;15.63;nan;99332.69;4944326;28;20201;-76
2022/10/16 03:24:12;;;;;;;3.97;2.90;;;;;;;15.59;nan;99321.53;4946435;28;20193;-76
2022/10/16 03:26:38;;;;;;;6.77;2.27;;;;;;;15.58;nan;99327.81;4946784;28;20771;-76
2022/10/16 03:29:03;;;;;;;3.23;2.07;;;;;;;15.59;nan;99326.00;4944628;28;20221;-76
2022/10/16 03:31:29;;;;;;;3.90;2.53;;;;;;;15.62;nan;99326.56;4943262;28;20211;-76
2022/10/16 03:33:55;;;;;;;4.20;2.00;;;;;;;15.65;nan;99336.88;4944148;28;20208;-76
2022/10/16 03:36:24;;;;;;;2.50;2.30;;;;;;;15.64;nan;99335.22;4943700;28;20200;-76
2022/10/16 03:38:49;;;;;;;8.97;3.10;;;;;;;15.65;nan;99342.16;4944735;28;20323;-76
2022/10/16 03:41:15;;;;;;;3.30;3.00;;;;;;;15.66;nan;99343.88;4939875;28;20199;-76
2022/10/16 03:43:40;;;;;;;4.30;2.77;;;;;;;15.66;nan;99338.56;4945373;28;20684;-76
2022/10/16 03:46:05;;;;;;;3.73;2.30;;;;;;;15.66;nan;99340.34;4946197;28;20198;-77
2022/10/16 03:48:31;;;;;;;4.00;2.50;;;;;;;15.63;nan;99349.41;4942428;28;20221;-76
2022/10/16 03:50:58;;;;;;;4.28;3.05;;;;;;;15.63;nan;99352.06;4942476;28;20788;-76
2022/10/16 03:53:23;;;;;;;3.53;3.17;;;;;;;15.61;nan;99339.97;4945430;28;20251;-77
2022/10/16 03:55:48;;;;;;;4.73;2.97;;;;;;;15.59;nan;99348.03;4944517;28;20249;-77
2022/10/16 03:58:14;;;;;;;5.33;2.53;;;;;;;15.58;nan;99356.94;4941434;28;20207;-77
2022/10/16 04:00:44;;;;;;;5.70;3.07;;;;;;;15.56;nan;99344.81;4944285;28;21476;-76
2022/10/16 04:03:10;;;;;;;5.60;3.40;;;;;;;15.55;nan;99343.97;4943271;28;20223;-76
2022/10/16 04:05:35;;;;;;;7.20;4.03;;;;;;;15.54;nan;99346.75;4943182;28;20213;-76
2022/10/16 04:08:01;;;;;;;3.67;2.53;;;;;;;15.52;nan;99341.59;4942540;28;20250;-77
2022/10/16 04:10:26;;;;;;;4.97;3.17;;;;;;;15.53;nan;99337.97;4944856;28;20283;-76
2022/10/16 04:12:54;;;;;;;8.37;4.13;;;;;;;15.53;nan;99358.31;4943347;28;20198;-76
2022/10/16 04:15:20;;;;;;;5.50;3.00;;;;;;;15.53;nan;99343.28;4947546;28;20229;-76
2022/10/16 04:17:46;;;;;;;4.13;3.20;;;;;;;15.52;nan;99338.09;4944561;28;20554;-76
2022/10/16 04:20:11;;;;;;;3.73;3.10;;;;;;;15.50;nan;99351.50;4944081;28;20731;-76
2022/10/16 04:22:37;;;;;;;5.30;3.27;;;;;;;15.48;nan;99356.09;4944424;28;20456;-76
2022/10/16 04:25:02;;;;;;;4.70;3.47;;;;;;;15.49;nan;99345.34;4942131;28;20652;-76
2022/10/16 04:27:28;;;;;;;4.17;3.50;;;;;;;15.47;nan;99343.78;4939049;28;20272;-76
2022/10/16 04:29:53;;;;;;;6.00;3.83;;;;;;;15.48;nan;99358.72;4942971;28;20504;-77
2022/10/16 04:32:19;;;;;;;4.93;3.63;;;;;;;15.51;nan;99361.09;4942617;28;20212;-76
2022/10/16 04:34:44;;;;;;;6.50;4.53;;;;;;;15.51;nan;99347.88;4937936;28;20652;-77
2022/10/16 04:37:10;;;;;;;4.97;3.90;;;;;;;15.51;nan;99353.16;4942261;28;20204;-76
2022/10/16 04:39:35;;;;;;;6.30;3.00;;;;;;;15.50;nan;99343.56;4940209;28;20687;-77
2022/10/16 04:42:00;;;;;;;5.53;3.30;;;;;;;15.51;nan;99349.69;4943105;28;20212;-76
2022/10/16 04:44:26;;;;;;;6.97;2.90;;;;;;;15.51;nan;99361.09;4920951;28;20289;-76
2022/10/16 04:46:51;;;;;;;2.37;2.13;;;;;;;15.53;nan;99359.16;4944222;28;20202;-76
2022/10/16 04:49:17;;;;;;;3.77;2.53;;;;;;;15.56;nan;99363.34;4939407;28;20242;-77
2022/10/16 04:51:42;;;;;;;3.63;2.33;;;;;;;15.58;nan;99350.78;4981339;23;20244;-76
2022/10/16 04:54:09;;;;;;;3.20;2.90;;;;;;;15.59;nan;99349.84;4966263;28;20397;-77
2022/10/16 04:56:40;;;;;;;3.05;2.80;;;;;;;15.58;nan;99353.44;4977434;28;20319;-77
2022/10/16 04:59:05;;;;;;;4.53;2.80;;;;;;;15.57;nan;99352.59;4979859;28;20965;-77
2022/10/16 05:01:31;;;;;;;3.00;2.80;;;;;;;15.56;nan;99358.88;4979567;28;20214;-76
2022/10/16 05:03:56;;;;;;;3.73;3.03;;;;;;;15.56;nan;99363.34;4979945;28;20260;-76
2022/10/16 05:06:21;;;;;;;5.03;3.70;;;;;;;15.56;nan;99374.78;4978696;28;20865;-76
2022/10/16 05:08:47;;;;;;;9.40;3.77;;;;;;;15.57;nan;99375.59;4978582;28;20311;-76
2022/10/16 05:11:12;;;;;;;3.93;3.53;;;;;;;15.56;nan;99377.41;4980039;28;20232;-76
2022/10/16 05:13:38;;;;;;;4.57;3.70;;;;;;;15.58;nan;99372.84;4977842;28;20436;-76
2022/10/16 05:16:03;;;;;;;3.47;3.07;;;;;;;15.58;nan;99372.84;4977684;28;20213;-76
2022/10/16 05:18:29;;;;;;;4.20;2.90;;;;;;;15.61;nan;99383.16;4977911;28;20197;-77
2022/10/16 05:20:54;;;;;;;5.97;3.47;;;;;;;15.64;nan;99382.88;4979089;28;20636;-77
2022/10/16 05:23:19;;;;;;;4.00;3.47;;;;;;;15.65;nan;99371.28;4980471;28;20217;-77
2022/10/16 05:25:57;;;;;;;3.80;2.97;;;;;;;15.67;nan;99387.91;4977078;28;20676;-77
2022/10/16 05:28:24;;;;;;;4.38;2.97;;;;;;;15.65;nan;99389.84;4977799;28;20973;-77
2022/10/16 05:30:49;;;;;;;4.22;2.95;;;;;;;15.64;nan;99377.56;4977610;28;20209;-77
2022/10/16 05:33:15;;;;;;;5.50;3.00;;;;;;;15.64;nan;99377.56;4980600;28;20214;-77
2022/10/16 05:35:40;;;;;;;3.83;3.43;;;;;;;15.65;nan;99368.66;4979141;28;20227;-77
2022/10/16 05:38:06;;;;;;;4.90;3.53;;;;;;;15.66;nan;99369.47;4976538;28;20205;-77
2022/10/16 05:40:31;;;;;;;7.50;3.17;;;;;;;15.65;nan;99373.13;4977165;28;20219;-77
2022/10/16 05:42:56;;;;;;;4.77;3.43;;;;;;;15.65;nan;99373.13;4978339;28;20257;-77
2022/10/16 05:45:22;;;;;;;6.40;3.50;;;;;;;15.68;nan;99383.44;4978986;28;20723;-77
2022/10/16 05:47:47;;;;;;;3.60;2.80;;;;;;;15.67;nan;99390.53;4979278;28;20770;-76
2022/10/16 05:50:13;;;;;;;3.93;2.80;;;;;;;15.68;nan;99394.03;4977524;28;20202;-77
2022/10/16 05:52:39;;;;;;;3.43;3.03;;;;;;;15.67;nan;99397.66;4978992;28;20991;-77
2022/10/16 05:55:05;;;;;;;7.00;3.23;;;;;;;15.67;nan;99387.91;4978527;28;20562;-79
2022/10/16 05:57:31;;;;;;;3.53;2.97;;;;;;;15.68;nan;99389.59;4978219;28;20200;-77
2022/10/16 05:59:56;;;;;;;10.60;3.57;;;;;;;15.68;nan;99394.88;4979429;28;20637;-76
2022/10/16 06:02:21;;;;;;;6.53;2.80;;;;;;;15.69;nan;99399.22;4980505;28;20242;-76
2022/10/16 06:04:47;;;;;;;3.37;2.73;;;;;;;15.72;nan;99398.13;4980175;28;20197;-76
2022/10/16 06:07:12;;;;;;;2.50;2.30;;;;;;;15.72;nan;99387.53;4977793;28;20566;-76
2022/10/16 06:09:38;;;;;;;2.93;2.43;;;;;;;15.73;nan;99405.09;4978326;28;20282;-77
2022/10/16 06:12:03;;;;;;;7.63;3.23;;;;;;;15.75;nan;99407.59;4979427;28;20215;-76
2022/10/16 06:14:29;;;;;;;3.37;2.90;;;;;;;15.76;nan;99411.91;4975500;28;20235;-75
2022/10/16 06:16:54;;;;;;;4.00;3.10;;;;;;;15.75;nan;99418.19;4979805;28;20198;-77
2022/10/16 06:19:20;;;;;;;5.63;3.17;;;;;;;15.74;nan;99433.22;4975155;28;20206;-77
2022/10/16 06:21:45;;;;;;;6.63;2.43;;;;;;;15.73;nan;99428.09;4977904;28;20278;-77
2022/10/16 06:24:11;;;;;;;6.50;2.70;;;;;;;15.74;nan;99437.69;4979118;28;20694;-76
2022/10/16 06:26:37;;;;;;;5.93;2.87;;;;;;;15.74;nan;99438.53;4978515;28;20212;-76
2022/10/16 06:29:02;;;;;;;3.85;2.53;;;;;;;15.74;nan;99456.22;4977409;28;20195;-77
2022/10/16 06:31:30;;;;;;;4.30;3.23;;;;;;;15.72;nan;99459.03;4979094;28;20720;-76
2022/10/16 06:33:57;;;;;;;4.07;2.97;;;;;;;15.73;nan;99468.63;4978524;28;20236;-76
2022/10/16 06:36:24;;;;;;;4.28;2.22;;;;;;;15.74;nan;99472.13;4977488;28;20691;-76
2022/10/16 06:38:49;;;;;;;7.53;3.25;;;;;;;15.76;nan;99472.81;4977904;28;20205;-76
2022/10/16 06:41:19;;;;;;;3.37;2.63;;;;;;;15.78;nan;99473.53;4994706;28;20237;-76
2022/10/16 06:43:45;;;;;;;4.10;2.72;;;;;;;15.80;nan;99456.53;4983551;28;20203;-76
2022/10/16 06:46:13;;;;;;;5.00;3.35;;;;;;;15.82;nan;99454.56;4984085;28;20197;-76
2022/10/16 06:48:38;;;;;;;3.47;2.80;;;;;;;15.84;nan;99465.88;4982427;28;20248;-76
2022/10/16 06:51:05;;;;;;;3.50;2.50;;;;;;;15.86;nan;99455.16;4980386;28;20241;-76
2022/10/16 06:53:34;;;;;;;6.93;3.20;;;;;;;15.89;nan;99470.78;4981436;28;20231;-76
2022/10/16 06:56:15;;;;;;;4.28;3.10;;;;;;;15.89;nan;99484.84;4981814;28;20223;-75
2022/10/16 06:58:42;;;;;;;3.33;2.55;;;;;;;15.91;nan;99497.97;4978751;28;20229;-77
2022/10/16 07:01:08;;;;;;;11.75;3.45;;;;;;;15.96;nan;99502.84;4980533;28;20247;-76
2022/10/16 07:03:37;;;;;;;4.30;3.22;;;;;;;15.97;nan;99488.66;4982132;28;20222;-76
2022/10/16 07:06:04;;;;;;;7.43;3.47;;;;;;;15.99;nan;99500.78;4982764;28;20201;-76
2022/10/16 07:08:37;;;;;;;3.13;2.55;;;;;;;16.01;nan;99487.41;4981536;28;20198;-75
2022/10/16 07:11:06;;;;;;;3.75;2.97;;;;;;;16.03;nan;99493.41;4979635;28;20233;-76
2022/10/16 07:13:38;;;;;;;5.13;3.20;;;;;;;16.05;nan;99489.66;4979447;28;20247;-76
2022/10/16 07:16:15;;;;;;;5.05;3.00;;;;;;;16.06;nan;99491.31;4981866;28;20214;-76
2022/10/16 07:18:44;;;;;;;4.15;2.80;;;;;;;16.08;nan;99489.38;4982134;28;20185;-78
2022/10/16 07:21:19;;;;;;;4.68;3.22;;;;;;;16.09;nan;99506.97;4982532;28;20205;-76
2022/10/16 07:23:44;;;;;;;4.20;3.25;;;;;;;16.13;nan;99511.00;4981009;28;20188;-77
2022/10/16 07:26:10;;;;;;;7.30;3.90;;;;;;;16.18;nan;99512.44;4981997;28;20204;-77
2022/10/16 07:28:37;;;;;;;4.53;3.00;;;;;;;16.24;nan;99517.19;4981530;28;20389;-76
2022/10/16 07:31:08;;;;;;;4.30;3.25;;;;;;;16.29;nan;99520.25;4982247;28;20474;-77
2022/10/16 07:33:34;;;;;;;3.95;2.70;;;;;;;16.33;nan;99513.69;4979668;28;20244;-77
2022/10/16 07:36:00;;;;;;;7.90;3.50;;;;;;;16.35;nan;99525.84;4979583;28;20651;-77
2022/10/16 07:38:26;;;;;;;4.83;3.10;;;;;;;16.39;nan;99531.72;4979628;28;20682;-77
2022/10/16 07:41:10;;;;;;;6.00;2.93;;;;;;;16.46;nan;99529.34;4981872;28;20246;-77
2022/10/16 07:43:36;;;;;;;3.70;2.60;;;;;;;16.48;nan;99538.84;4979517;28;20258;-77
2022/10/16 07:46:02;;;;;;;4.10;2.80;;;;;;;16.50;nan;99539.56;4981110;28;20266;-77
2022/10/16 07:48:30;;;;;;;6.10;2.40;;;;;;;16.55;nan;99539.13;4980483;28;20194;-77
2022/10/16 07:51:16;;;;;;;4.47;2.85;;;;;;;16.55;nan;99534.69;4979783;28;20962;-77
2022/10/16 07:53:42;;;;;;;3.55;3.10;;;;;;;16.57;nan;99534.53;4978395;28;20762;-77
2022/10/16 07:56:08;;;;;;;3.03;2.40;;;;;;;16.58;nan;99542.34;4980601;28;20223;-77
2022/10/16 07:58:36;;;;;;;4.68;2.40;;;;;;;16.64;nan;99540.97;4983472;28;21112;-80
2022/10/16 08:01:08;;;;;;;6.60;2.83;;;;;;;16.73;nan;99549.91;4983447;28;20194;-76
2022/10/16 08:03:33;;;;;;;4.72;2.50;;;;;;;16.83;nan;99557.91;4985598;28;20635;-76
2022/10/16 08:06:00;;;;;;;2.90;2.50;;;;;;;16.94;nan;99555.13;4984107;28;20218;-76
2022/10/16 08:08:26;;;;;;;3.38;2.30;;;;;;;17.03;nan;99547.13;4984207;28;20892;-76
2022/10/16 08:10:52;;;;;;;3.28;2.40;;;;;;;17.13;nan;99552.44;4981773;28;20313;-77
2022/10/16 08:13:18;;;;;;;5.33;2.20;;;;;;;17.21;nan;99554.41;4982336;28;20297;-76
2022/10/16 08:15:44;;;;;;;8.17;3.33;;;;;;;17.28;nan;99554.66;4984814;28;20230;-78
2022/10/16 08:18:11;;;;;;;6.43;2.50;;;;;;;17.33;nan;99545.28;4985888;28;20545;-77
2022/10/16 08:20:37;;;;;;;5.10;2.58;;;;;;;17.38;nan;99550.19;4984180;28;20724;-77
2022/10/16 08:23:03;;;;;;;7.13;3.20;;;;;;;17.45;nan;99552.13;4985595;28;20192;-78
2022/10/16 08:25:28;;;;;;;2.37;2.13;;;;;;;17.50;nan;99542.88;4984559;28;20196;-77
2022/10/16 08:27:54;;;;;;;2.37;1.80;;;;;;;17.54;nan;99545.09;4984010;28;20651;-76
2022/10/16 08:30:21;;;;;;;6.90;2.67;;;;;;;17.57;nan;99550.13;4982838;28;20199;-82
2022/10/16 08:32:46;;;;;;;4.30;2.42;;;;;;;17.61;nan;99548.03;4983880;28;20187;-76
2022/10/16 08:35:13;;;;;;;5.07;1.80;;;;;;;17.65;nan;99557.38;4984064;28;20226;-76
2022/10/16 08:37:39;;;;;;;4.35;3.15;;;;;;;17.67;nan;99556.25;4983071;28;20254;-79
2022/10/16 08:40:06;;;;;;;7.10;2.70;;;;;;;17.68;nan;99539.31;4983305;28;20666;-76
2022/10/16 08:42:58;;;;;;;4.45;2.67;;;;;;;17.67;nan;99547.47;4983455;28;20277;-77
2022/10/16 08:45:57;;;;;;;2.38;1.70;;;;;;;17.69;nan;99549.00;4981639;28;20250;-78
2022/10/16 08:48:30;;;;;;;3.53;1.70;;;;;;;17.73;nan;99562.81;4983942;28;20262;-80
2022/10/16 08:50:56;;;;;;;3.53;2.95;;;;;;;17.77;nan;99555.38;4981156;28;20614;-78
2022/10/16 08:53:44;;;;;;;5.20;2.50;;;;;;;17.82;nan;99562.00;4983123;28;20673;-77
2022/10/16 08:56:10;;;;;;;2.75;2.33;;;;;;;17.84;nan;99570.63;4981173;28;20299;-76
2022/10/16 08:58:35;;;;;;;4.43;3.00;;;;;;;17.87;nan;99564.19;4980617;28;20412;-76
2022/10/16 09:01:03;;;;;;;2.13;1.93;;;;;;;17.91;nan;99565.59;4980962;28;20218;-80
2022/10/16 09:03:36;;;;;;;2.70;2.20;;;;;;;17.96;nan;99562.47;4980643;28;20282;-78
2022/10/16 09:06:01;;;;;;;3.40;2.70;;;;;;;18.01;nan;99558.41;4980202;28;20470;-76
2022/10/16 09:08:45;;;;;;;7.70;3.23;;;;;;;18.07;nan;99546.38;4983198;28;20799;-76
2022/10/16 09:11:25;;;;;;;5.20;2.80;;;;;;;18.16;nan;99561.41;4981269;28;20211;-78
2022/10/16 09:14:00;;;;;;;5.37;3.43;;;;;;;18.27;nan;99569.19;4981707;28;20296;-77
2022/10/16 09:16:31;;;;;;;6.15;3.78;;;;;;;18.35;nan;99563.13;4981483;28;20518;-78
2022/10/16 09:19:19;;;;;;;5.30;3.60;;;;;;;18.46;nan;99568.25;4981406;28;20217;-76
2022/10/16 09:21:47;;;;;;;3.23;2.50;;;;;;;18.54;nan;99576.31;4979563;28;20898;-78
2022/10/16 09:24:21;;;;;;;6.30;2.93;;;;;;;18.67;nan;99573.31;4981742;28;21587;-76
2022/10/16 09:26:47;;;;;;;3.37;2.57;;;;;;;19.01;nan;99586.00;4979644;28;20463;-78
2022/10/16 09:29:14;;;;;;;6.80;2.80;;;;;;;19.55;nan;99584.09;4981014;28;20444;-79
2022/10/16 09:31:41;;;;;;;2.87;2.60;;;;;;;19.98;nan;99587.72;4980705;28;20504;-76
2022/10/16 09:34:29;;;;;;;3.73;2.53;;;;;;;20.29;nan;99592.53;4978581;28;20456;-77
2022/10/16 09:36:57;;;;;;;3.07;2.30;;;;;;;20.40;nan;99596.72;4980294;28;20504;-78
2022/10/16 09:39:22;;;;;;;2.10;1.90;;;;;;;20.44;nan;99600.72;4981330;28;20830;-80
2022/10/16 09:41:48;;;;;;;5.23;2.00;;;;;;;20.53;nan;99589.97;4981417;28;20497;-76
2022/10/16 09:44:24;;;;;;;3.63;2.67;;;;;;;20.64;nan;99598.69;4978796;28;20212;-76
2022/10/16 09:47:04;;;;;;;3.13;2.07;;;;;;;20.70;nan;99593.50;4976829;28;20286;-79
2022/10/16 09:49:29;;;;;;;4.53;1.93;;;;;;;20.71;nan;99600.53;4977632;28;20720;-80
2022/10/16 09:52:12;;;;;;;4.70;1.57;;;;;;;20.72;nan;99588.03;4978617;28;20854;-77
2022/10/16 09:54:49;;;;;;;2.00;1.80;;;;;;;20.70;nan;99587.34;4981773;28;20223;-76
2022/10/16 09:57:15;;;;;;;3.80;2.43;;;;;;;20.68;nan;99584.00;4979702;28;20510;-78
2022/10/16 09:59:51;;;;;;;8.73;2.00;;;;;;;20.73;nan;99584.34;4977101;28;20459;-77
2022/10/16 10:02:20;;;;;;;4.00;2.20;;;;;;;20.78;nan;99587.34;4982467;28;20219;-77
2022/10/16 10:04:56;;;;;;;4.00;2.25;;;;;;;20.92;nan;99586.72;4976355;28;20480;-78
2022/10/16 10:07:33;;;;;;;3.57;2.10;;;;;;;20.99;nan;99587.72;4979236;28;20210;-77
2022/10/16 10:09:59;;;;;;;4.57;2.27;;;;;;;21.08;nan;99580.56;4980632;28;20558;-79
2022/10/16 10:12:31;;;;;;;3.87;1.97;;;;;;;21.18;nan;99575.06;4976716;28;20874;-77
2022/10/16 10:15:04;;;;;;;3.43;3.13;;;;;;;21.27;nan;99579.38;4977415;28;20481;-79
2022/10/16 10:17:30;;;;;;;3.37;2.20;;;;;;;21.38;nan;99580.91;4980498;28;21001;-77
2022/10/16 10:20:11;;;;;;;4.03;1.97;;;;;;;21.46;nan;99580.91;4983952;28;20447;-78
2022/10/16 10:22:41;;;;;;;2.10;1.90;;;;;;;21.55;nan;99582.59;4983662;28;20503;-78
2022/10/16 10:25:13;;;;;;;2.87;2.07;;;;;;;21.62;nan;99585.41;4984782;28;20535;-80
2022/10/16 10:27:53;;;;;;;4.73;2.60;;;;;;;21.69;nan;99583.75;4978084;28;20981;-80
2022/10/16 10:30:24;;;;;;;1.87;1.73;;;;;;;21.76;nan;99584.72;4983355;28;20530;-81
2022/10/16 10:33:03;;;;;;;4.33;2.07;;;;;;;21.84;nan;99587.38;4981546;28;20417;-81
2022/10/16 10:35:52;;;;;;;4.87;2.40;;;;;;;21.94;nan;99579.16;4982638;28;20470;-78
2022/10/16 10:38:30;;;;;;;8.87;2.20;;;;;;;22.03;nan;99580.78;4983692;28;20522;-77
2022/10/16 10:41:14;;;;;;;2.90;1.70;;;;;;;22.10;nan;99583.63;4982580;28;21072;-77
2022/10/16 10:44:00;;;;;;;2.50;1.93;;;;;;;22.17;nan;99576.59;4983739;28;20593;-78
2022/10/16 10:46:35;;;;;;;3.80;1.80;;;;;;;22.26;nan;99575.56;4983736;28;20438;-80
2022/10/16 10:49:27;;;;;;;2.50;1.80;;;;;;;22.35;nan;99579.03;4981262;28;20801;-77
2022/10/16 10:52:18;;;;;;;2.90;2.27;;;;;;;22.41;nan;99577.50;4981918;28;20448;-78
2022/10/16 10:55:15;;;;;;;2.40;1.70;;;;;;;22.46;nan;99578.63;4985927;28;20512;-77
2022/10/16 10:58:04;;;;;;;4.57;2.03;;;;;;;22.50;nan;99579.16;4973069;28;20435;-78
2022/10/16 11:00:47;;;;;;;6.90;1.83;;;;;;;22.52;nan;99580.63;4983585;28;20472;-78
2022/10/16 11:03:43;;;;;;;3.67;2.00;;;;;;;22.55;nan;99576.78;4985111;28;20448;-77
2022/10/16 11:06:33;;;;;;;1.67;1.50;;;;;;;22.59;nan;99580.75;4985037;28;20451;-78
2022/10/16 11:09:15;;;;;;;2.53;2.13;;;;;;;22.59;nan;99577.25;4982624;28;20428;-77
2022/10/16 11:12:01;;;;;;;2.40;1.50;;;;;;;22.60;nan;99574.41;4986160;28;20904;-78
2022/10/16 11:14:43;;;;;;;3.70;1.67;;;;;;;22.66;nan;99573.69;4986617;28;20988;-79
2022/10/16 11:17:25;;;;;;;2.27;1.70;;;;;;;22.73;nan;99565.78;4984781;28;20446;-78
2022/10/16 11:19:56;;;;;;;2.57;1.73;;;;;;;22.81;nan;99565.72;4989228;28;20472;-78
2022/10/16 11:22:38;;;;;;;2.50;2.03;;;;;;;22.87;nan;99566.84;4989465;28;20616;-78
2022/10/16 11:25:26;;;;;;;4.20;2.60;;;;;;;22.93;nan;99560.81;4986212;28;20458;-78
2022/10/16 11:28:09;;;;;;;6.60;2.30;;;;;;;23.00;nan;99572.50;4982853;28;20906;-78
2022/10/16 11:30:54;;;;;;;3.40;1.43;;;;;;;23.06;nan;99571.78;4983199;28;20819;-78
2022/10/16 11:33:35;;;;;;;3.00;1.50;;;;;;;23.16;nan;99567.00;4983794;28;20454;-79
2022/10/16 11:36:11;;;;;;;1.43;1.20;;;;;;;23.22;nan;99567.28;4984012;28;20437;-78
2022/10/16 11:38:59;;;;;;;1.30;1.20;;;;;;;23.32;nan;99557.16;4983138;28;20966;-81
2022/10/16 11:41:47;;;;;;;1.60;1.50;;;;;;;23.45;nan;99552.03;4984016;28;20452;-79
2022/10/16 11:44:29;;;;;;;4.40;1.53;;;;;;;23.56;nan;99548.88;4980403;28;20557;-77
2022/10/16 11:47:22;;;;;;;1.60;1.40;;;;;;;23.67;nan;99547.59;4981921;28;20409;-79
2022/10/16 11:49:57;;;;;;;2.03;1.50;;;;;;;23.78;nan;99554.41;4982266;28;20745;-76
2022/10/16 11:52:31;;;;;;;4.40;2.90;;;;;;;23.88;nan;99554.13;4979050;28;20813;-76
2022/10/16 11:55:42;;;;;;;2.60;1.70;;;;;;;23.97;nan;99543.09;4979893;28;20440;-76
2022/10/16 11:58:19;;;;;;;2.50;1.70;;;;;;;24.14;nan;99542.91;4978680;28;20420;-76
2022/10/16 12:04:27;;;;;;;1.50;1.40;;;;;;;24.36;nan;99541.97;4968171;28;20449;-75
2022/10/16 12:07:04;;;;;;;2.70;1.77;;;;;;;24.39;nan;99544.25;4983708;28;20944;-79
2022/10/16 12:09:32;;;;;;;2.40;1.80;;;;;;;24.42;nan;99537.69;4976876;28;20443;-81
2022/10/16 12:11:58;;;;;;;2.60;1.97;;;;;;;24.44;nan;99533.81;4975002;28;21112;-78